sensor_id;sensor_type;location;lat;lon;timestamp;pressure;altitude;pressure_sealevel;temperature;humidity
12468;BME280;57850;52.922;6.256;2023-01-04T00:01:35;101691.38;;;11.05;100.00
12468;BME280;57850;52.922;6.256;2023-01-04T00:04:01;101670.34;;;11.10;100.00
12468;BME280;57850;52.922;6.256;2023-01-04T00:06:29;101690.44;;;11.08;100.00
12468;BME280;57850;52.922;6.256;2023-01-04T00:08:56;101674.75;;;11.08;100.00
12468;BME280;57850;52.922;6.256;2023-01-04T00:11:23;101679.75;;;11.17;100.00
12468;BME280;57850;52.922;6.256;2023-01-04T00:13:51;101674.47;;;11.18;100.00
12468;BME280;57850;52.922;6.256;2023-01-04T00:16:19;101648.88;;;10.99;100.00
12468;BME280;57850;52.922;6.256;2023-01-04T00:18:46;101615.31;;;10.84;100.00
12468;BME280;57850;52.922;6.256;2023-01-04T00:21:14;101585.53;;;10.91;100.00
12468;BME280;57850;52.922;6.256;2023-01-04T00:23:45;101550.31;;;10.73;100.00
12468;BME280;57850;52.922;6.256;2023-01-04T00:26:17;101504.91;;;10.80;100.00
12468;BME280;57850;52.922;6.256;2023-01-04T00:28:45;101511.34;;;10.65;100.00
12468;BME280;57850;52.922;6.256;2023-01-04T00:31:14;101462.06;;;10.87;100.00
12468;BME280;57850;52.922;6.256;2023-01-04T00:33:44;101459.00;;;10.71;100.00
12468;BME280;57850;52.922;6.256;2023-01-04T00:36:12;101460.72;;;10.72;100.00
12468;BME280;57850;52.922;6.256;2023-01-04T00:38:40;101417.03;;;10.81;100.00
12468;BME280;57850;52.922;6.256;2023-01-04T00:41:10;101436.53;;;10.66;100.00
12468;BME280;57850;52.922;6.256;2023-01-04T00:43:39;101419.84;;;10.71;100.00
12468;BME280;57850;52.922;6.256;2023-01-04T00:46:05;101403.31;;;10.72;100.00
12468;BME280;57850;52.922;6.256;2023-01-04T00:48:35;101441.81;;;10.64;100.00
12468;BME280;57850;52.922;6.256;2023-01-04T00:51:03;101384.84;;;10.80;100.00
12468;BME280;57850;52.922;6.256;2023-01-04T00:53:30;101388.31;;;10.79;100.00
12468;BME280;57850;52.922;6.256;2023-01-04T00:56:00;101360.22;;;10.89;100.00
12468;BME280;57850;52.922;6.256;2023-01-04T00:58:28;101350.25;;;10.72;100.00
12468;BME280;57850;52.922;6.256;2023-01-04T01:00:54;101345.13;;;10.69;100.00
12468;BME280;57850;52.922;6.256;2023-01-04T01:03:21;101325.78;;;10.76;100.00
12468;BME280;57850;52.922;6.256;2023-01-04T01:05:48;101308.47;;;10.72;100.00
12468;BME280;57850;52.922;6.256;2023-01-04T01:08:14;101299.38;;;10.87;100.00
12468;BME280;57850;52.922;6.256;2023-01-04T01:10:50;101344.16;;;10.71;100.00
12468;BME280;57850;52.922;6.256;2023-01-04T01:13:18;101274.28;;;10.81;100.00
12468;BME280;57850;52.922;6.256;2023-01-04T01:15:46;101240.78;;;10.67;100.00
12468;BME280;57850;52.922;6.256;2023-01-04T01:18:13;101223.63;;;10.59;100.00
12468;BME280;57850;52.922;6.256;2023-01-04T01:20:40;101192.53;;;10.81;100.00
12468;BME280;57850;52.922;6.256;2023-01-04T01:23:10;101194.50;;;10.72;100.00
12468;BME280;57850;52.922;6.256;2023-01-04T01:25:38;101154.56;;;10.70;100.00
12468;BME280;57850;52.922;6.256;2023-01-04T01:28:05;101219.94;;;10.66;100.00
12468;BME280;57850;52.922;6.256;2023-01-04T01:30:32;101152.38;;;10.57;100.00
12468;BME280;57850;52.922;6.256;2023-01-04T01:33:00;101128.00;;;10.58;100.00
12468;BME280;57850;52.922;6.256;2023-01-04T01:35:29;101092.06;;;10.66;100.00
12468;BME280;57850;52.922;6.256;2023-01-04T01:37:57;100477.03;;;11.85;100.00
12468;BME280;57850;52.922;6.256;2023-01-04T01:40:32;100556.22;;;11.68;100.00
12468;BME280;57850;52.922;6.256;2023-01-04T01:43:01;100792.63;;;11.39;100.00
12468;BME280;57850;52.922;6.256;2023-01-04T01:45:31;100857.94;;;11.61;100.00
12468;BME280;57850;52.922;6.256;2023-01-04T01:48:04;100925.41;;;11.50;100.00
12468;BME280;57850;52.922;6.256;2023-01-04T01:50:34;100963.50;;;11.34;100.00
12468;BME280;57850;52.922;6.256;2023-01-04T01:53:03;100993.06;;;11.57;100.00
12468;BME280;57850;52.922;6.256;2023-01-04T01:55:31;101010.69;;;11.29;100.00
12468;BME280;57850;52.922;6.256;2023-01-04T01:57:59;101010.31;;;11.40;100.00
12468;BME280;57850;52.922;6.256;2023-01-04T02:00:27;101027.66;;;11.41;100.00
12468;BME280;57850;52.922;6.256;2023-01-04T02:03:06;101004.56;;;11.53;100.00
12468;BME280;57850;52.922;6.256;2023-01-04T02:05:35;101025.97;;;11.40;100.00
12468;BME280;57850;52.922;6.256;2023-01-04T02:08:03;101006.50;;;11.48;100.00
12468;BME280;57850;52.922;6.256;2023-01-04T02:10:31;101007.09;;;11.32;100.00
12468;BME280;57850;52.922;6.256;2023-01-04T02:12:59;100972.19;;;11.57;100.00
12468;BME280;57850;52.922;6.256;2023-01-04T02:15:32;100996.84;;;11.27;100.00
12468;BME280;57850;52.922;6.256;2023-01-04T02:18:09;100976.84;;;11.49;100.00
12468;BME280;57850;52.922;6.256;2023-01-04T02:20:45;100959.19;;;11.56;100.00
12468;BME280;57850;52.922;6.256;2023-01-04T02:26:52;100955.16;;;11.69;100.00
12468;BME280;57850;52.922;6.256;2023-01-04T02:29:50;100801.88;;;11.90;100.00
12468;BME280;57850;52.922;6.256;2023-01-04T02:32:32;100880.31;;;12.10;100.00
12468;BME280;57850;52.922;6.256;2023-01-04T02:35:13;100902.09;;;11.90;100.00
12468;BME280;57850;52.922;6.256;2023-01-04T02:37:49;100886.75;;;11.81;100.00
12468;BME280;57850;52.922;6.256;2023-01-04T02:40:23;100929.78;;;11.94;100.00
12468;BME280;57850;52.922;6.256;2023-01-04T02:42:56;100757.13;;;12.16;100.00
12468;BME280;57850;52.922;6.256;2023-01-04T02:45:46;100756.34;;;11.94;100.00
12468;BME280;57850;52.922;6.256;2023-01-04T02:48:16;100837.75;;;12.06;100.00
12468;BME280;57850;52.922;6.256;2023-01-04T02:51:00;100856.91;;;12.07;100.00
12468;BME280;57850;52.922;6.256;2023-01-04T02:53:28;100871.47;;;12.12;100.00
12468;BME280;57850;52.922;6.256;2023-01-04T02:56:07;100889.31;;;12.24;100.00
12468;BME280;57850;52.922;6.256;2023-01-04T02:58:55;100901.72;;;12.19;100.00
12468;BME280;57850;52.922;6.256;2023-01-04T03:01:35;100845.00;;;12.00;100.00
12468;BME280;57850;52.922;6.256;2023-01-04T03:04:35;100860.53;;;12.24;100.00
12468;BME280;57850;52.922;6.256;2023-01-04T03:07:25;100891.06;;;12.24;100.00
12468;BME280;57850;52.922;6.256;2023-01-04T03:09:59;100830.00;;;12.44;100.00
12468;BME280;57850;52.922;6.256;2023-01-04T03:12:28;100852.13;;;12.16;100.00
12468;BME280;57850;52.922;6.256;2023-01-04T03:15:05;100824.13;;;12.39;100.00
12468;BME280;57850;52.922;6.256;2023-01-04T03:17:40;100768.91;;;12.45;100.00
12468;BME280;57850;52.922;6.256;2023-01-04T03:20:14;100785.41;;;12.47;100.00
12468;BME280;57850;52.922;6.256;2023-01-04T03:22:46;100781.31;;;12.60;100.00
12468;BME280;57850;52.922;6.256;2023-01-04T03:25:36;100819.50;;;12.45;100.00
12468;BME280;57850;52.922;6.256;2023-01-04T03:28:25;100794.66;;;12.54;100.00
12468;BME280;57850;52.922;6.256;2023-01-04T03:31:13;100830.47;;;12.72;100.00
12468;BME280;57850;52.922;6.256;2023-01-04T03:34:00;100819.09;;;12.73;100.00
12468;BME280;57850;52.922;6.256;2023-01-04T03:36:55;100830.25;;;12.97;100.00
12468;BME280;57850;52.922;6.256;2023-01-04T03:39:33;100825.41;;;12.87;100.00
12468;BME280;57850;52.922;6.256;2023-01-04T03:42:27;100803.41;;;12.73;100.00
12468;BME280;57850;52.922;6.256;2023-01-04T03:45:16;100765.09;;;12.89;100.00
12468;BME280;57850;52.922;6.256;2023-01-04T03:48:08;100769.63;;;12.85;100.00
12468;BME280;57850;52.922;6.256;2023-01-04T03:51:02;100740.47;;;12.93;100.00
12468;BME280;57850;52.922;6.256;2023-01-04T03:53:33;100721.94;;;12.79;100.00
12468;BME280;57850;52.922;6.256;2023-01-04T03:56:02;100713.50;;;12.91;100.00
12468;BME280;57850;52.922;6.256;2023-01-04T03:58:29;100708.09;;;12.77;100.00
12468;BME280;57850;52.922;6.256;2023-01-04T04:00:56;100720.94;;;12.81;100.00
12468;BME280;57850;52.922;6.256;2023-01-04T04:03:28;100674.78;;;12.98;100.00
12468;BME280;57850;52.922;6.256;2023-01-04T04:06:12;100683.56;;;12.97;100.00
12468;BME280;57850;52.922;6.256;2023-01-04T04:08:58;100664.28;;;12.98;100.00
12468;BME280;57850;52.922;6.256;2023-01-04T04:11:25;100671.44;;;12.94;100.00
12468;BME280;57850;52.922;6.256;2023-01-04T04:13:58;100659.50;;;12.88;100.00
12468;BME280;57850;52.922;6.256;2023-01-04T04:16:26;100641.13;;;13.07;100.00
12468;BME280;57850;52.922;6.256;2023-01-04T04:18:53;100638.97;;;12.98;100.00
12468;BME280;57850;52.922;6.256;2023-01-04T04:21:20;100615.53;;;12.95;100.00
12468;BME280;57850;52.922;6.256;2023-01-04T04:23:47;100622.19;;;13.19;100.00
12468;BME280;57850;52.922;6.256;2023-01-04T04:26:16;100621.66;;;13.13;100.00
12468;BME280;57850;52.922;6.256;2023-01-04T04:28:42;100638.09;;;13.33;100.00
12468;BME280;57850;52.922;6.256;2023-01-04T04:31:09;100682.72;;;12.96;100.00
12468;BME280;57850;52.922;6.256;2023-01-04T04:33:36;89550.34;;;13.21;100.00
12468;BME280;57850;52.922;6.256;2023-01-04T04:36:03;93037.84;;;13.44;100.00
12468;BME280;57850;52.922;6.256;2023-01-04T04:38:30;95945.41;;;14.30;100.00
12468;BME280;57850;52.922;6.256;2023-01-04T04:40:57;94273.66;;;14.44;nan
12468;BME280;57850;52.922;6.256;2023-01-04T04:43:42;93294.34;;;15.73;nan
12468;BME280;57850;52.922;6.256;2023-01-04T04:46:09;93270.19;;;15.71;nan
12468;BME280;57850;52.922;6.256;2023-01-04T04:48:36;93867.94;;;15.87;nan
12468;BME280;57850;52.922;6.256;2023-01-04T04:51:03;94554.09;;;16.05;nan
12468;BME280;57850;52.922;6.256;2023-01-04T04:53:29;95608.38;;;15.79;nan
12468;BME280;57850;52.922;6.256;2023-01-04T04:55:56;95497.72;;;16.05;nan
12468;BME280;57850;52.922;6.256;2023-01-04T04:58:23;95275.91;;;16.18;nan
12468;BME280;57850;52.922;6.256;2023-01-04T05:00:50;94897.31;;;16.18;nan
12468;BME280;57850;52.922;6.256;2023-01-04T05:03:17;94551.72;;;16.26;nan
12468;BME280;57850;52.922;6.256;2023-01-04T05:05:44;94269.44;;;16.00;nan
12468;BME280;57850;52.922;6.256;2023-01-04T05:08:11;94534.59;;;15.80;nan
12468;BME280;57850;52.922;6.256;2023-01-04T05:10:37;94719.84;;;15.99;nan
12468;BME280;57850;52.922;6.256;2023-01-04T05:13:04;95014.44;;;15.97;nan
12468;BME280;57850;52.922;6.256;2023-01-04T05:15:33;95226.97;;;16.17;nan
12468;BME280;57850;52.922;6.256;2023-01-04T05:18:03;95409.47;;;15.80;nan
12468;BME280;57850;52.922;6.256;2023-01-04T05:20:30;95428.25;;;16.13;nan
12468;BME280;57850;52.922;6.256;2023-01-04T05:22:57;95430.75;;;16.08;nan
12468;BME280;57850;52.922;6.256;2023-01-04T05:25:24;95477.91;;;16.21;nan
12468;BME280;57850;52.922;6.256;2023-01-04T05:27:51;95477.53;;;16.18;nan
12468;BME280;57850;52.922;6.256;2023-01-04T05:30:18;95515.88;;;15.71;nan
12468;BME280;57850;52.922;6.256;2023-01-04T05:33:04;95481.97;;;15.87;nan
12468;BME280;57850;52.922;6.256;2023-01-04T05:35:31;95471.81;;;15.91;nan
12468;BME280;57850;52.922;6.256;2023-01-04T05:37:58;95460.84;;;15.94;nan
12468;BME280;57850;52.922;6.256;2023-01-04T05:40:25;95456.25;;;15.89;nan
12468;BME280;57850;52.922;6.256;2023-01-04T05:42:52;95435.16;;;15.96;nan
12468;BME280;57850;52.922;6.256;2023-01-04T05:45:19;95390.34;;;16.32;nan
12468;BME280;57850;52.922;6.256;2023-01-04T05:47:48;95418.88;;;15.87;nan
12468;BME280;57850;52.922;6.256;2023-01-04T05:50:18;95346.72;;;16.54;nan
12468;BME280;57850;52.922;6.256;2023-01-04T05:52:45;95368.09;;;16.05;nan
12468;BME280;57850;52.922;6.256;2023-01-04T05:55:12;95359.09;;;16.13;nan
12468;BME280;57850;52.922;6.256;2023-01-04T05:57:40;95402.69;;;15.90;nan
12468;BME280;57850;52.922;6.256;2023-01-04T06:00:08;95262.56;;;16.54;nan
12468;BME280;57850;52.922;6.256;2023-01-04T06:02:35;95375.41;;;16.03;nan
12468;BME280;57850;52.922;6.256;2023-01-04T06:05:01;95345.88;;;16.31;nan
12468;BME280;57850;52.922;6.256;2023-01-04T06:07:30;95380.13;;;16.13;nan
12468;BME280;57850;52.922;6.256;2023-01-04T06:09:56;95345.97;;;16.13;nan
12468;BME280;57850;52.922;6.256;2023-01-04T06:12:23;95320.84;;;16.28;nan
12468;BME280;57850;52.922;6.256;2023-01-04T06:14:50;95278.63;;;16.00;nan
12468;BME280;57850;52.922;6.256;2023-01-04T06:17:17;95255.41;;;15.97;nan
12468;BME280;57850;52.922;6.256;2023-01-04T06:19:43;95198.97;;;16.11;nan
12468;BME280;57850;52.922;6.256;2023-01-04T06:22:10;94870.13;;;16.57;nan
12468;BME280;57850;52.922;6.256;2023-01-04T06:24:38;94941.72;;;16.59;nan
12468;BME280;57850;52.922;6.256;2023-01-04T06:27:05;94956.34;;;17.00;nan
12468;BME280;57850;52.922;6.256;2023-01-04T06:29:31;95082.00;;;16.77;nan
12468;BME280;57850;52.922;6.256;2023-01-04T06:31:58;95239.88;;;16.19;nan
12468;BME280;57850;52.922;6.256;2023-01-04T06:34:25;95014.03;;;16.45;nan
12468;BME280;57850;52.922;6.256;2023-01-04T06:36:51;95043.44;;;16.42;nan
12468;BME280;57850;52.922;6.256;2023-01-04T06:39:18;95037.03;;;16.38;nan
12468;BME280;57850;52.922;6.256;2023-01-04T06:41:46;95033.88;;;16.25;nan
12468;BME280;57850;52.922;6.256;2023-01-04T06:44:12;94978.09;;;16.63;nan
12468;BME280;57850;52.922;6.256;2023-01-04T06:46:39;95006.72;;;16.19;nan
12468;BME280;57850;52.922;6.256;2023-01-04T06:49:06;94991.75;;;16.08;nan
12468;BME280;57850;52.922;6.256;2023-01-04T06:51:32;94941.44;;;16.44;nan
12468;BME280;57850;52.922;6.256;2023-01-04T06:53:59;94942.78;;;16.47;nan
12468;BME280;57850;52.922;6.256;2023-01-04T06:56:25;94920.63;;;16.43;nan
12468;BME280;57850;52.922;6.256;2023-01-04T06:58:53;94932.97;;;15.97;nan
12468;BME280;57850;52.922;6.256;2023-01-04T07:01:20;94866.69;;;16.40;nan
12468;BME280;57850;52.922;6.256;2023-01-04T07:03:46;94892.38;;;16.22;nan
12468;BME280;57850;52.922;6.256;2023-01-04T07:06:13;94899.47;;;16.21;nan
12468;BME280;57850;52.922;6.256;2023-01-04T07:08:39;94856.06;;;16.35;nan
12468;BME280;57850;52.922;6.256;2023-01-04T07:11:06;94916.00;;;16.05;nan
12468;BME280;57850;52.922;6.256;2023-01-04T07:13:33;94800.03;;;16.51;nan
12468;BME280;57850;52.922;6.256;2023-01-04T07:16:00;94795.25;;;16.48;nan
12468;BME280;57850;52.922;6.256;2023-01-04T07:18:27;94830.72;;;16.13;nan
12468;BME280;57850;52.922;6.256;2023-01-04T07:20:54;94776.78;;;16.27;nan
12468;BME280;57850;52.922;6.256;2023-01-04T07:23:20;94799.56;;;16.04;nan
12468;BME280;57850;52.922;6.256;2023-01-04T07:25:47;94778.38;;;16.11;nan
12468;BME280;57850;52.922;6.256;2023-01-04T07:28:13;94766.63;;;15.85;nan
12468;BME280;57850;52.922;6.256;2023-01-04T07:31:06;94706.75;;;16.21;nan
12468;BME280;57850;52.922;6.256;2023-01-04T07:33:33;94729.78;;;16.30;nan
12468;BME280;57850;52.922;6.256;2023-01-04T07:36:04;94751.78;;;16.07;nan
12468;BME280;57850;52.922;6.256;2023-01-04T07:38:32;94701.75;;;16.19;nan
12468;BME280;57850;52.922;6.256;2023-01-04T07:40:58;94689.50;;;16.08;nan
12468;BME280;57850;52.922;6.256;2023-01-04T07:43:25;94705.25;;;15.91;nan
12468;BME280;57850;52.922;6.256;2023-01-04T07:45:52;94656.34;;;16.07;nan
12468;BME280;57850;52.922;6.256;2023-01-04T07:48:20;94637.13;;;16.23;nan
12468;BME280;57850;52.922;6.256;2023-01-04T07:50:48;94688.28;;;16.16;nan
12468;BME280;57850;52.922;6.256;2023-01-04T07:53:14;94966.22;;;16.48;nan
12468;BME280;57850;52.922;6.256;2023-01-04T07:55:43;94653.22;;;16.27;nan
12468;BME280;57850;52.922;6.256;2023-01-04T07:58:11;94640.50;;;16.19;nan
12468;BME280;57850;52.922;6.256;2023-01-04T08:00:37;94705.66;;;16.00;nan
12468;BME280;57850;52.922;6.256;2023-01-04T08:03:04;94674.34;;;16.32;nan
12468;BME280;57850;52.922;6.256;2023-01-04T08:05:33;94699.34;;;16.34;nan
12468;BME280;57850;52.922;6.256;2023-01-04T08:08:00;94748.78;;;16.71;nan
12468;BME280;57850;52.922;6.256;2023-01-04T08:10:27;94812.81;;;16.59;nan
12468;BME280;57850;52.922;6.256;2023-01-04T08:12:53;94816.47;;;16.42;nan
12468;BME280;57850;52.922;6.256;2023-01-04T08:15:20;94792.59;;;16.60;nan
12468;BME280;57850;52.922;6.256;2023-01-04T08:17:46;94746.47;;;16.96;nan
12468;BME280;57850;52.922;6.256;2023-01-04T08:20:13;94760.75;;;17.00;nan
12468;BME280;57850;52.922;6.256;2023-01-04T08:22:41;94754.78;;;16.66;nan
12468;BME280;57850;52.922;6.256;2023-01-04T08:25:08;94730.56;;;16.47;nan
12468;BME280;57850;52.922;6.256;2023-01-04T08:27:35;94637.75;;;16.69;nan
12468;BME280;57850;52.922;6.256;2023-01-04T08:30:01;94654.19;;;16.59;nan
12468;BME280;57850;52.922;6.256;2023-01-04T08:32:28;94635.88;;;16.47;nan
12468;BME280;57850;52.922;6.256;2023-01-04T08:34:55;94647.44;;;16.46;nan
12468;BME280;57850;52.922;6.256;2023-01-04T08:37:21;94586.94;;;16.03;nan
12468;BME280;57850;52.922;6.256;2023-01-04T08:39:49;94476.72;;;16.45;nan
12468;BME280;57850;52.922;6.256;2023-01-04T08:42:16;94495.34;;;16.17;nan
12468;BME280;57850;52.922;6.256;2023-01-04T08:44:43;94425.44;;;16.42;nan
12468;BME280;57850;52.922;6.256;2023-01-04T08:47:09;94474.66;;;15.98;nan
12468;BME280;57850;52.922;6.256;2023-01-04T08:49:36;94397.50;;;16.36;nan
12468;BME280;57850;52.922;6.256;2023-01-04T08:52:02;94434.81;;;16.06;nan
12468;BME280;57850;52.922;6.256;2023-01-04T08:54:29;94375.41;;;16.05;nan
12468;BME280;57850;52.922;6.256;2023-01-04T08:56:57;94357.72;;;16.54;nan
12468;BME280;57850;52.922;6.256;2023-01-04T08:59:24;94390.16;;;16.38;nan
12468;BME280;57850;52.922;6.256;2023-01-04T09:01:50;94368.69;;;16.51;nan
12468;BME280;57850;52.922;6.256;2023-01-04T09:04:17;94381.44;;;16.59;nan
12468;BME280;57850;52.922;6.256;2023-01-04T09:06:44;94407.81;;;16.43;nan
12468;BME280;57850;52.922;6.256;2023-01-04T09:09:10;94391.94;;;16.33;nan
12468;BME280;57850;52.922;6.256;2023-01-04T09:11:37;94338.84;;;16.63;nan
12468;BME280;57850;52.922;6.256;2023-01-04T09:14:05;94367.03;;;16.40;nan
12468;BME280;57850;52.922;6.256;2023-01-04T09:16:35;94380.00;;;16.20;nan
12468;BME280;57850;52.922;6.256;2023-01-04T09:19:02;94300.53;;;16.45;nan
12468;BME280;57850;52.922;6.256;2023-01-04T09:21:28;94336.53;;;16.39;nan
12468;BME280;57850;52.922;6.256;2023-01-04T09:23:55;94294.16;;;16.68;nan
12468;BME280;57850;52.922;6.256;2023-01-04T09:26:23;94336.19;;;16.31;nan
12468;BME280;57850;52.922;6.256;2023-01-04T09:28:51;94292.53;;;16.56;nan
12468;BME280;57850;52.922;6.256;2023-01-04T09:31:20;94245.63;;;16.95;nan
12468;BME280;57850;52.922;6.256;2023-01-04T09:33:48;94198.28;;;17.00;nan
12468;BME280;57850;52.922;6.256;2023-01-04T09:36:16;94269.94;;;16.29;nan
12468;BME280;57850;52.922;6.256;2023-01-04T09:38:43;94288.38;;;16.34;nan
12468;BME280;57850;52.922;6.256;2023-01-04T09:41:17;94191.19;;;16.54;nan
12468;BME280;57850;52.922;6.256;2023-01-04T09:43:48;94136.03;;;16.64;nan
12468;BME280;57850;52.922;6.256;2023-01-04T09:46:20;94196.28;;;16.24;nan
12468;BME280;57850;52.922;6.256;2023-01-04T09:48:51;94117.16;;;16.72;nan
12468;BME280;57850;52.922;6.256;2023-01-04T09:51:20;94072.22;;;17.24;nan
12468;BME280;57850;52.922;6.256;2023-01-04T09:53:54;94267.75;;;16.21;nan
12468;BME280;57850;52.922;6.256;2023-01-04T09:56:26;94207.09;;;16.27;nan
12468;BME280;57850;52.922;6.256;2023-01-04T09:58:55;94226.50;;;16.21;nan
12468;BME280;57850;52.922;6.256;2023-01-04T10:01:27;94151.72;;;16.44;nan
12468;BME280;57850;52.922;6.256;2023-01-04T10:03:59;94182.91;;;16.25;nan
12468;BME280;57850;52.922;6.256;2023-01-04T10:06:27;94157.59;;;16.14;nan
12468;BME280;57850;52.922;6.256;2023-01-04T10:08:57;94135.81;;;16.71;nan
12468;BME280;57850;52.922;6.256;2023-01-04T10:11:38;94129.97;;;16.58;nan
12468;BME280;57850;52.922;6.256;2023-01-04T10:14:25;94169.91;;;16.50;nan
12468;BME280;57850;52.922;6.256;2023-01-04T10:17:06;94105.50;;;16.58;nan
12468;BME280;57850;52.922;6.256;2023-01-04T10:19:49;94132.09;;;16.62;nan
12468;BME280;57850;52.922;6.256;2023-01-04T10:22:25;94072.97;;;16.84;nan
12468;BME280;57850;52.922;6.256;2023-01-04T10:24:59;94068.50;;;16.95;nan
12468;BME280;57850;52.922;6.256;2023-01-04T10:27:44;94099.25;;;16.74;nan
12468;BME280;57850;52.922;6.256;2023-01-04T10:30:23;94169.84;;;16.45;nan
12468;BME280;57850;52.922;6.256;2023-01-04T10:33:00;94156.28;;;16.58;nan
12468;BME280;57850;52.922;6.256;2023-01-04T10:35:32;94141.53;;;16.57;nan
12468;BME280;57850;52.922;6.256;2023-01-04T10:38:01;94129.22;;;16.68;nan
12468;BME280;57850;52.922;6.256;2023-01-04T10:40:30;94183.28;;;16.44;nan
12468;BME280;57850;52.922;6.256;2023-01-04T10:43:03;94088.44;;;16.71;nan
12468;BME280;57850;52.922;6.256;2023-01-04T10:45:38;94053.75;;;16.79;nan
12468;BME280;57850;52.922;6.256;2023-01-04T10:48:11;94053.53;;;17.05;nan
12468;BME280;57850;52.922;6.256;2023-01-04T10:50:48;94111.09;;;16.77;nan
12468;BME280;57850;52.922;6.256;2023-01-04T10:53:22;94078.75;;;16.86;nan
12468;BME280;57850;52.922;6.256;2023-01-04T10:55:55;94183.25;;;16.91;nan
12468;BME280;57850;52.922;6.256;2023-01-04T10:58:28;94189.00;;;16.83;nan
12468;BME280;57850;52.922;6.256;2023-01-04T11:01:01;94106.69;;;17.02;nan
12468;BME280;57850;52.922;6.256;2023-01-04T11:03:34;94214.09;;;16.53;nan
12468;BME280;57850;52.922;6.256;2023-01-04T11:06:14;94055.09;;;17.27;nan
12468;BME280;57850;52.922;6.256;2023-01-04T11:08:46;94067.72;;;17.04;nan
12468;BME280;57850;52.922;6.256;2023-01-04T11:11:21;94182.13;;;16.77;nan
12468;BME280;57850;52.922;6.256;2023-01-04T11:13:50;94067.47;;;17.11;nan
12468;BME280;57850;52.922;6.256;2023-01-04T11:16:17;94138.88;;;16.52;nan
12468;BME280;57850;52.922;6.256;2023-01-04T11:18:47;94054.53;;;16.69;nan
12468;BME280;57850;52.922;6.256;2023-01-04T11:21:19;94026.16;;;17.11;nan
12468;BME280;57850;52.922;6.256;2023-01-04T11:23:47;94056.44;;;17.19;nan
12468;BME280;57850;52.922;6.256;2023-01-04T11:26:17;94095.13;;;17.03;nan
12468;BME280;57850;52.922;6.256;2023-01-04T11:28:48;94223.13;;;16.63;nan
12468;BME280;57850;52.922;6.256;2023-01-04T11:31:22;94104.03;;;16.92;nan
12468;BME280;57850;52.922;6.256;2023-01-04T11:33:54;94178.44;;;16.73;nan
12468;BME280;57850;52.922;6.256;2023-01-04T11:36:38;94076.13;;;16.86;nan
12468;BME280;57850;52.922;6.256;2023-01-04T11:39:09;94035.38;;;17.04;nan
12468;BME280;57850;52.922;6.256;2023-01-04T11:41:53;94200.53;;;16.72;nan
12468;BME280;57850;52.922;6.256;2023-01-04T11:44:20;94135.59;;;16.92;nan
12468;BME280;57850;52.922;6.256;2023-01-04T11:47:04;94167.22;;;17.02;nan
12468;BME280;57850;52.922;6.256;2023-01-04T11:49:35;94244.56;;;16.96;nan
12468;BME280;57850;52.922;6.256;2023-01-04T11:52:03;94193.16;;;16.74;nan
12468;BME280;57850;52.922;6.256;2023-01-04T11:54:30;94271.81;;;16.70;nan
12468;BME280;57850;52.922;6.256;2023-01-04T11:56:59;94255.63;;;16.98;nan
12468;BME280;57850;52.922;6.256;2023-01-04T11:59:28;94215.63;;;16.91;nan
12468;BME280;57850;52.922;6.256;2023-01-04T12:02:16;94249.56;;;16.93;nan
12468;BME280;57850;52.922;6.256;2023-01-04T12:04:45;94271.81;;;17.27;nan
12468;BME280;57850;52.922;6.256;2023-01-04T12:07:27;94366.16;;;16.98;nan
12468;BME280;57850;52.922;6.256;2023-01-04T12:09:55;94352.47;;;16.91;nan
12468;BME280;57850;52.922;6.256;2023-01-04T12:12:26;94270.66;;;17.03;nan
12468;BME280;57850;52.922;6.256;2023-01-04T12:14:54;94391.16;;;16.96;nan
12468;BME280;57850;52.922;6.256;2023-01-04T12:17:23;94423.31;;;16.66;nan
12468;BME280;57850;52.922;6.256;2023-01-04T12:19:54;94352.75;;;16.58;nan
12468;BME280;57850;52.922;6.256;2023-01-04T12:22:25;94260.59;;;16.85;nan
12468;BME280;57850;52.922;6.256;2023-01-04T12:24:57;94302.53;;;16.59;nan
12468;BME280;57850;52.922;6.256;2023-01-04T12:27:24;94341.53;;;16.41;nan
12468;BME280;57850;52.922;6.256;2023-01-04T12:29:57;94231.03;;;16.68;nan
12468;BME280;57850;52.922;6.256;2023-01-04T12:32:42;94346.50;;;16.37;nan
12468;BME280;57850;52.922;6.256;2023-01-04T12:41:23;94372.44;;;16.87;nan
12468;BME280;57850;52.922;6.256;2023-01-04T12:43:50;94431.69;;;16.95;nan
12468;BME280;57850;52.922;6.256;2023-01-04T12:46:32;94465.53;;;16.81;nan
12468;BME280;57850;52.922;6.256;2023-01-04T12:49:42;94481.97;;;16.98;nan
12468;BME280;57850;52.922;6.256;2023-01-04T12:52:42;94587.94;;;16.89;nan
12468;BME280;57850;52.922;6.256;2023-01-04T13:01:31;94588.16;;;17.09;nan
12468;BME280;57850;52.922;6.256;2023-01-04T13:04:01;94867.91;;;16.66;nan
12468;BME280;57850;52.922;6.256;2023-01-04T13:06:32;94912.69;;;16.54;nan
12468;BME280;57850;52.922;6.256;2023-01-04T13:09:00;94954.59;;;16.44;nan
12468;BME280;57850;52.922;6.256;2023-01-04T13:14:33;94918.84;;;16.77;nan
12468;BME280;57850;52.922;6.256;2023-01-04T13:17:18;95007.34;;;16.66;nan
12468;BME280;57850;52.922;6.256;2023-01-04T13:19:47;95035.09;;;16.74;nan
12468;BME280;57850;52.922;6.256;2023-01-04T13:22:26;95088.91;;;16.66;nan
12468;BME280;57850;52.922;6.256;2023-01-04T13:24:53;95116.13;;;17.00;nan
12468;BME280;57850;52.922;6.256;2023-01-04T13:27:22;95097.50;;;16.90;nan
12468;BME280;57850;52.922;6.256;2023-01-04T13:29:50;95254.78;;;16.59;nan
12468;BME280;57850;52.922;6.256;2023-01-04T13:32:22;95202.97;;;16.37;nan
12468;BME280;57850;52.922;6.256;2023-01-04T13:34:51;95108.63;;;16.80;nan
12468;BME280;57850;52.922;6.256;2023-01-04T13:37:25;95225.13;;;16.87;nan
12468;BME280;57850;52.922;6.256;2023-01-04T13:40:00;95214.31;;;17.00;nan
12468;BME280;57850;52.922;6.256;2023-01-04T13:42:30;95305.31;;;16.50;nan
12468;BME280;57850;52.922;6.256;2023-01-04T13:48:09;95247.91;;;16.70;nan
12468;BME280;57850;52.922;6.256;2023-01-04T13:50:38;95372.66;;;16.39;nan